sensor_id;sensor_type;location;lat;lon;timestamp;P1;durP1;ratioP1;P2;durP2;ratioP2
10031;SDS011;5056;44.272;19.892;2022-09-09T00:01:13;10.13;;;8.65;;
10031;SDS011;5056;44.272;19.892;2022-09-09T00:03:53;11.30;;;9.00;;
10031;SDS011;5056;44.272;19.892;2022-09-09T00:06:21;9.55;;;8.27;;
10031;SDS011;5056;44.272;19.892;2022-09-09T00:08:56;8.82;;;8.00;;
10031;SDS011;5056;44.272;19.892;2022-09-09T00:11:33;8.63;;;7.68;;
10031;SDS011;5056;44.272;19.892;2022-09-09T00:14:06;10.48;;;7.85;;
10031;SDS011;5056;44.272;19.892;2022-09-09T00:16:40;8.90;;;8.07;;
10031;SDS011;5056;44.272;19.892;2022-09-09T00:19:12;10.13;;;8.70;;
10031;SDS011;5056;44.272;19.892;2022-09-09T00:21:47;9.30;;;8.50;;
10031;SDS011;5056;44.272;19.892;2022-09-09T00:24:26;9.45;;;8.57;;
10031;SDS011;5056;44.272;19.892;2022-09-09T00:26:56;9.70;;;8.75;;
10031;SDS011;5056;44.272;19.892;2022-09-09T00:29:35;10.55;;;8.77;;
10031;SDS011;5056;44.272;19.892;2022-09-09T00:32:11;9.60;;;8.68;;
10031;SDS011;5056;44.272;19.892;2022-09-09T00:34:39;9.25;;;8.25;;
10031;SDS011;5056;44.272;19.892;2022-09-09T00:37:14;8.40;;;7.53;;
10031;SDS011;5056;44.272;19.892;2022-09-09T00:39:44;10.43;;;8.45;;
10031;SDS011;5056;44.272;19.892;2022-09-09T00:42:17;9.32;;;8.13;;
10031;SDS011;5056;44.272;19.892;2022-09-09T00:44:51;8.93;;;8.10;;
10031;SDS011;5056;44.272;19.892;2022-09-09T00:47:25;10.07;;;8.68;;
10031;SDS011;5056;44.272;19.892;2022-09-09T00:50:14;9.60;;;8.70;;
10031;SDS011;5056;44.272;19.892;2022-09-09T00:52:49;8.88;;;7.97;;
10031;SDS011;5056;44.272;19.892;2022-09-09T00:55:25;8.88;;;8.00;;
10031;SDS011;5056;44.272;19.892;2022-09-09T00:57:57;9.18;;;7.30;;
10031;SDS011;5056;44.272;19.892;2022-09-09T01:00:26;10.18;;;7.97;;
10031;SDS011;5056;44.272;19.892;2022-09-09T01:03:02;9.75;;;8.40;;
10031;SDS011;5056;44.272;19.892;2022-09-09T01:05:39;8.45;;;7.72;;
10031;SDS011;5056;44.272;19.892;2022-09-09T01:08:14;8.82;;;7.93;;
10031;SDS011;5056;44.272;19.892;2022-09-09T01:10:57;8.45;;;7.53;;
10031;SDS011;5056;44.272;19.892;2022-09-09T01:13:25;8.68;;;7.97;;
10031;SDS011;5056;44.272;19.892;2022-09-09T01:15:55;8.50;;;7.55;;
10031;SDS011;5056;44.272;19.892;2022-09-09T01:18:26;8.05;;;7.35;;
10031;SDS011;5056;44.272;19.892;2022-09-09T01:20:55;7.93;;;7.13;;
10031;SDS011;5056;44.272;19.892;2022-09-09T01:26:19;8.52;;;7.30;;
10031;SDS011;5056;44.272;19.892;2022-09-09T01:28:56;8.25;;;7.20;;
10031;SDS011;5056;44.272;19.892;2022-09-09T01:31:28;8.50;;;7.68;;
10031;SDS011;5056;44.272;19.892;2022-09-09T01:33:59;9.27;;;7.15;;
10031;SDS011;5056;44.272;19.892;2022-09-09T01:36:28;9.73;;;7.38;;
10031;SDS011;5056;44.272;19.892;2022-09-09T01:39:02;11.30;;;7.40;;
10031;SDS011;5056;44.272;19.892;2022-09-09T01:41:31;7.68;;;7.00;;
10031;SDS011;5056;44.272;19.892;2022-09-09T01:43:58;7.38;;;6.68;;
10031;SDS011;5056;44.272;19.892;2022-09-09T01:46:32;9.52;;;7.50;;
10031;SDS011;5056;44.272;19.892;2022-09-09T01:48:59;10.90;;;7.57;;
10031;SDS011;5056;44.272;19.892;2022-09-09T01:51:27;7.93;;;7.13;;
10031;SDS011;5056;44.272;19.892;2022-09-09T01:53:54;10.35;;;7.30;;
10031;SDS011;5056;44.272;19.892;2022-09-09T01:56:25;7.70;;;6.90;;
10031;SDS011;5056;44.272;19.892;2022-09-09T01:59:06;8.07;;;7.28;;
10031;SDS011;5056;44.272;19.892;2022-09-09T02:01:47;7.85;;;7.10;;
10031;SDS011;5056;44.272;19.892;2022-09-09T02:04:23;7.65;;;6.95;;
10031;SDS011;5056;44.272;19.892;2022-09-09T02:06:58;8.98;;;6.57;;
10031;SDS011;5056;44.272;19.892;2022-09-09T02:09:32;7.63;;;6.65;;
10031;SDS011;5056;44.272;19.892;2022-09-09T02:12:04;8.15;;;7.35;;
10031;SDS011;5056;44.272;19.892;2022-09-09T02:14:35;7.97;;;7.00;;
10031;SDS011;5056;44.272;19.892;2022-09-09T02:17:11;9.50;;;7.22;;
10031;SDS011;5056;44.272;19.892;2022-09-09T02:19:42;7.70;;;6.85;;
10031;SDS011;5056;44.272;19.892;2022-09-09T02:22:15;11.07;;;7.00;;
10031;SDS011;5056;44.272;19.892;2022-09-09T02:24:46;7.13;;;6.50;;
10031;SDS011;5056;44.272;19.892;2022-09-09T02:27:21;7.47;;;6.68;;
10031;SDS011;5056;44.272;19.892;2022-09-09T02:29:50;7.93;;;7.22;;
10031;SDS011;5056;44.272;19.892;2022-09-09T02:32:19;8.93;;;7.32;;
10031;SDS011;5056;44.272;19.892;2022-09-09T02:34:48;10.20;;;7.28;;
10031;SDS011;5056;44.272;19.892;2022-09-09T02:37:20;7.68;;;6.90;;
10031;SDS011;5056;44.272;19.892;2022-09-09T02:39:50;10.20;;;7.18;;
10031;SDS011;5056;44.272;19.892;2022-09-09T02:42:22;9.25;;;7.22;;
10031;SDS011;5056;44.272;19.892;2022-09-09T02:44:49;9.68;;;7.43;;
10031;SDS011;5056;44.272;19.892;2022-09-09T02:47:26;8.55;;;7.60;;
10031;SDS011;5056;44.272;19.892;2022-09-09T02:50:01;13.75;;;8.38;;
10031;SDS011;5056;44.272;19.892;2022-09-09T02:52:33;10.40;;;7.68;;
10031;SDS011;5056;44.272;19.892;2022-09-09T02:55:07;10.32;;;7.63;;
10031;SDS011;5056;44.272;19.892;2022-09-09T02:57:47;10.50;;;7.80;;
10031;SDS011;5056;44.272;19.892;2022-09-09T03:00:14;8.13;;;7.47;;
10031;SDS011;5056;44.272;19.892;2022-09-09T03:02:42;8.63;;;7.82;;
10031;SDS011;5056;44.272;19.892;2022-09-09T03:05:10;9.60;;;7.32;;
10031;SDS011;5056;44.272;19.892;2022-09-09T03:07:38;11.38;;;8.00;;
10031;SDS011;5056;44.272;19.892;2022-09-09T03:10:08;8.80;;;7.60;;
10031;SDS011;5056;44.272;19.892;2022-09-09T03:12:38;8.70;;;7.80;;
10031;SDS011;5056;44.272;19.892;2022-09-09T03:15:10;8.35;;;7.65;;
10031;SDS011;5056;44.272;19.892;2022-09-09T03:17:38;8.70;;;7.25;;
10031;SDS011;5056;44.272;19.892;2022-09-09T03:20:07;8.95;;;7.70;;
10031;SDS011;5056;44.272;19.892;2022-09-09T03:22:36;10.50;;;8.32;;
10031;SDS011;5056;44.272;19.892;2022-09-09T03:25:05;8.77;;;7.97;;
10031;SDS011;5056;44.272;19.892;2022-09-09T03:27:33;8.45;;;7.70;;
10031;SDS011;5056;44.272;19.892;2022-09-09T03:30:02;10.35;;;8.27;;
10031;SDS011;5056;44.272;19.892;2022-09-09T03:32:37;9.52;;;8.65;;
10031;SDS011;5056;44.272;19.892;2022-09-09T03:35:05;10.57;;;8.40;;
10031;SDS011;5056;44.272;19.892;2022-09-09T03:37:33;9.85;;;8.95;;
10031;SDS011;5056;44.272;19.892;2022-09-09T03:40:03;9.57;;;8.65;;
10031;SDS011;5056;44.272;19.892;2022-09-09T03:42:31;9.43;;;8.55;;
10031;SDS011;5056;44.272;19.892;2022-09-09T03:44:58;10.10;;;8.50;;
10031;SDS011;5056;44.272;19.892;2022-09-09T03:47:25;11.52;;;8.38;;
10031;SDS011;5056;44.272;19.892;2022-09-09T03:52:38;9.40;;;8.55;;
10031;SDS011;5056;44.272;19.892;2022-09-09T03:55:07;10.55;;;9.07;;
10031;SDS011;5056;44.272;19.892;2022-09-09T03:57:35;13.98;;;9.38;;
10031;SDS011;5056;44.272;19.892;2022-09-09T04:00:02;12.77;;;9.52;;
10031;SDS011;5056;44.272;19.892;2022-09-09T04:02:30;9.77;;;8.77;;
10031;SDS011;5056;44.272;19.892;2022-09-09T04:04:57;11.65;;;9.30;;
10031;SDS011;5056;44.272;19.892;2022-09-09T04:07:26;12.70;;;9.65;;
10031;SDS011;5056;44.272;19.892;2022-09-09T04:09:53;10.48;;;9.50;;
10031;SDS011;5056;44.272;19.892;2022-09-09T04:12:20;10.18;;;9.13;;
10031;SDS011;5056;44.272;19.892;2022-09-09T04:14:47;10.98;;;10.00;;
10031;SDS011;5056;44.272;19.892;2022-09-09T04:17:14;11.48;;;9.43;;
10031;SDS011;5056;44.272;19.892;2022-09-09T04:19:42;11.05;;;10.07;;
10031;SDS011;5056;44.272;19.892;2022-09-09T04:22:09;12.27;;;10.30;;
10031;SDS011;5056;44.272;19.892;2022-09-09T04:24:39;10.85;;;9.63;;
10031;SDS011;5056;44.272;19.892;2022-09-09T04:27:12;12.02;;;10.75;;
10031;SDS011;5056;44.272;19.892;2022-09-09T04:29:39;11.52;;;9.50;;
10031;SDS011;5056;44.272;19.892;2022-09-09T04:32:06;11.25;;;10.13;;
10031;SDS011;5056;44.272;19.892;2022-09-09T04:37:49;12.30;;;10.75;;
10031;SDS011;5056;44.272;19.892;2022-09-09T04:40:17;11.65;;;10.55;;
10031;SDS011;5056;44.272;19.892;2022-09-09T04:42:44;13.75;;;11.98;;
10031;SDS011;5056;44.272;19.892;2022-09-09T04:45:13;14.35;;;11.77;;
10031;SDS011;5056;44.272;19.892;2022-09-09T04:47:40;11.30;;;10.18;;
10031;SDS011;5056;44.272;19.892;2022-09-09T04:50:07;11.73;;;10.52;;
10031;SDS011;5056;44.272;19.892;2022-09-09T04:52:35;12.00;;;10.82;;
10031;SDS011;5056;44.272;19.892;2022-09-09T04:55:02;11.45;;;10.35;;
10031;SDS011;5056;44.272;19.892;2022-09-09T04:57:32;12.32;;;10.95;;
10031;SDS011;5056;44.272;19.892;2022-09-09T05:00:02;13.23;;;11.15;;
10031;SDS011;5056;44.272;19.892;2022-09-09T05:02:30;12.43;;;11.13;;
10031;SDS011;5056;44.272;19.892;2022-09-09T05:04:59;12.18;;;10.93;;
10031;SDS011;5056;44.272;19.892;2022-09-09T05:07:26;13.27;;;11.45;;
10031;SDS011;5056;44.272;19.892;2022-09-09T05:10:02;14.00;;;12.52;;
10031;SDS011;5056;44.272;19.892;2022-09-09T05:12:32;14.00;;;12.60;;
10031;SDS011;5056;44.272;19.892;2022-09-09T05:14:59;13.88;;;12.70;;
10031;SDS011;5056;44.272;19.892;2022-09-09T05:17:26;13.90;;;12.43;;
10031;SDS011;5056;44.272;19.892;2022-09-09T05:22:23;12.38;;;11.15;;
10031;SDS011;5056;44.272;19.892;2022-09-09T05:24:53;12.55;;;11.35;;
10031;SDS011;5056;44.272;19.892;2022-09-09T05:30:22;15.82;;;11.75;;
10031;SDS011;5056;44.272;19.892;2022-09-09T05:32:51;12.95;;;11.68;;
10031;SDS011;5056;44.272;19.892;2022-09-09T05:35:18;13.18;;;11.77;;
10031;SDS011;5056;44.272;19.892;2022-09-09T05:37:45;13.50;;;11.90;;
10031;SDS011;5056;44.272;19.892;2022-09-09T05:40:13;14.00;;;12.52;;
10031;SDS011;5056;44.272;19.892;2022-09-09T05:42:40;17.20;;;13.55;;
10031;SDS011;5056;44.272;19.892;2022-09-09T05:45:09;15.90;;;12.55;;
10031;SDS011;5056;44.272;19.892;2022-09-09T05:47:36;14.70;;;13.25;;
10031;SDS011;5056;44.272;19.892;2022-09-09T05:50:05;13.35;;;12.05;;
10031;SDS011;5056;44.272;19.892;2022-09-09T05:52:32;14.93;;;13.35;;
10031;SDS011;5056;44.272;19.892;2022-09-09T05:54:59;16.35;;;14.65;;
10031;SDS011;5056;44.272;19.892;2022-09-09T05:57:26;13.88;;;12.65;;
10031;SDS011;5056;44.272;19.892;2022-09-09T05:59:53;14.88;;;13.50;;
10031;SDS011;5056;44.272;19.892;2022-09-09T06:02:21;13.93;;;12.52;;
10031;SDS011;5056;44.272;19.892;2022-09-09T06:04:48;12.73;;;11.50;;
10031;SDS011;5056;44.272;19.892;2022-09-09T06:07:15;13.40;;;12.10;;
10031;SDS011;5056;44.272;19.892;2022-09-09T06:09:44;13.75;;;12.43;;
10031;SDS011;5056;44.272;19.892;2022-09-09T06:12:11;17.88;;;12.80;;
10031;SDS011;5056;44.272;19.892;2022-09-09T06:14:38;12.80;;;11.60;;
10031;SDS011;5056;44.272;19.892;2022-09-09T06:17:05;12.15;;;10.95;;
10031;SDS011;5056;44.272;19.892;2022-09-09T06:19:38;14.82;;;10.70;;
10031;SDS011;5056;44.272;19.892;2022-09-09T06:24:38;12.57;;;11.23;;
10031;SDS011;5056;44.272;19.892;2022-09-09T06:27:05;15.98;;;13.60;;
10031;SDS011;5056;44.272;19.892;2022-09-09T06:29:32;14.05;;;11.73;;
10031;SDS011;5056;44.272;19.892;2022-09-09T06:32:01;13.32;;;11.98;;
10031;SDS011;5056;44.272;19.892;2022-09-09T06:34:28;11.48;;;10.40;;
10031;SDS011;5056;44.272;19.892;2022-09-09T06:36:56;11.05;;;9.55;;
10031;SDS011;5056;44.272;19.892;2022-09-09T06:39:23;10.15;;;9.27;;
10031;SDS011;5056;44.272;19.892;2022-09-09T06:41:51;11.32;;;10.00;;
10031;SDS011;5056;44.272;19.892;2022-09-09T06:44:18;10.90;;;9.55;;
10031;SDS011;5056;44.272;19.892;2022-09-09T06:46:48;10.45;;;9.38;;
10031;SDS011;5056;44.272;19.892;2022-09-09T06:49:15;9.70;;;8.80;;
10031;SDS011;5056;44.272;19.892;2022-09-09T06:51:42;9.80;;;8.95;;
10031;SDS011;5056;44.272;19.892;2022-09-09T06:54:11;9.00;;;8.05;;
10031;SDS011;5056;44.272;19.892;2022-09-09T06:56:38;9.45;;;8.55;;
10031;SDS011;5056;44.272;19.892;2022-09-09T06:59:07;9.68;;;8.18;;
10031;SDS011;5056;44.272;19.892;2022-09-09T07:01:37;9.20;;;7.70;;
10031;SDS011;5056;44.272;19.892;2022-09-09T07:04:06;8.02;;;6.82;;
10031;SDS011;5056;44.272;19.892;2022-09-09T07:06:35;8.52;;;7.78;;
10031;SDS011;5056;44.272;19.892;2022-09-09T07:09:03;10.05;;;9.10;;
10031;SDS011;5056;44.272;19.892;2022-09-09T07:11:33;9.65;;;8.75;;
10031;SDS011;5056;44.272;19.892;2022-09-09T07:14:00;8.90;;;8.10;;
10031;SDS011;5056;44.272;19.892;2022-09-09T07:16:27;7.93;;;7.32;;
10031;SDS011;5056;44.272;19.892;2022-09-09T07:18:57;9.63;;;8.65;;
10031;SDS011;5056;44.272;19.892;2022-09-09T07:21:28;10.48;;;9.10;;
10031;SDS011;5056;44.272;19.892;2022-09-09T07:23:56;9.18;;;8.43;;
10031;SDS011;5056;44.272;19.892;2022-09-09T07:26:25;8.63;;;7.90;;
10031;SDS011;5056;44.272;19.892;2022-09-09T07:28:55;9.20;;;8.32;;
10031;SDS011;5056;44.272;19.892;2022-09-09T07:31:24;9.05;;;8.15;;
10031;SDS011;5056;44.272;19.892;2022-09-09T07:33:52;8.35;;;7.70;;
10031;SDS011;5056;44.272;19.892;2022-09-09T07:36:19;9.93;;;6.60;;
10031;SDS011;5056;44.272;19.892;2022-09-09T07:38:48;8.00;;;5.93;;
10031;SDS011;5056;44.272;19.892;2022-09-09T07:41:18;7.18;;;6.32;;
10031;SDS011;5056;44.272;19.892;2022-09-09T07:43:47;6.15;;;5.13;;
10031;SDS011;5056;44.272;19.892;2022-09-09T07:46:18;6.78;;;5.38;;
10031;SDS011;5056;44.272;19.892;2022-09-09T07:48:48;11.75;;;6.70;;
10031;SDS011;5056;44.272;19.892;2022-09-09T07:51:23;10.15;;;6.93;;
10031;SDS011;5056;44.272;19.892;2022-09-09T07:53:53;7.55;;;6.20;;
10031;SDS011;5056;44.272;19.892;2022-09-09T07:56:22;6.57;;;5.97;;
10031;SDS011;5056;44.272;19.892;2022-09-09T07:58:58;6.53;;;5.82;;
10031;SDS011;5056;44.272;19.892;2022-09-09T08:01:27;9.25;;;5.57;;
10031;SDS011;5056;44.272;19.892;2022-09-09T08:03:57;6.57;;;5.82;;
10031;SDS011;5056;44.272;19.892;2022-09-09T08:06:26;6.28;;;5.65;;
10031;SDS011;5056;44.272;19.892;2022-09-09T08:08:56;7.22;;;5.15;;
10031;SDS011;5056;44.272;19.892;2022-09-09T08:11:24;5.18;;;4.65;;
10031;SDS011;5056;44.272;19.892;2022-09-09T08:13:53;6.75;;;5.50;;
10031;SDS011;5056;44.272;19.892;2022-09-09T08:16:23;5.35;;;4.82;;
10031;SDS011;5056;44.272;19.892;2022-09-09T08:18:57;5.35;;;4.85;;
10031;SDS011;5056;44.272;19.892;2022-09-09T08:21:37;6.40;;;4.72;;
10031;SDS011;5056;44.272;19.892;2022-09-09T08:24:09;4.75;;;4.35;;
10031;SDS011;5056;44.272;19.892;2022-09-09T08:26:41;5.38;;;4.88;;
10031;SDS011;5056;44.272;19.892;2022-09-09T08:29:09;5.93;;;4.80;;
10031;SDS011;5056;44.272;19.892;2022-09-09T08:31:37;4.13;;;3.67;;
10031;SDS011;5056;44.272;19.892;2022-09-09T08:34:07;5.47;;;3.85;;
10031;SDS011;5056;44.272;19.892;2022-09-09T08:36:36;5.07;;;4.68;;
10031;SDS011;5056;44.272;19.892;2022-09-09T08:39:06;5.45;;;4.72;;
10031;SDS011;5056;44.272;19.892;2022-09-09T08:41:38;4.72;;;4.30;;
10031;SDS011;5056;44.272;19.892;2022-09-09T08:44:14;5.07;;;4.60;;
10031;SDS011;5056;44.272;19.892;2022-09-09T08:46:46;4.70;;;4.30;;
10031;SDS011;5056;44.272;19.892;2022-09-09T08:49:34;7.10;;;5.00;;
10031;SDS011;5056;44.272;19.892;2022-09-09T08:52:10;5.90;;;4.03;;
10031;SDS011;5056;44.272;19.892;2022-09-09T08:54:43;44.42;;;15.40;;
10031;SDS011;5056;44.272;19.892;2022-09-09T08:57:11;12.02;;;6.43;;
10031;SDS011;5056;44.272;19.892;2022-09-09T08:59:42;10.25;;;6.60;;
10031;SDS011;5056;44.272;19.892;2022-09-09T09:02:13;10.57;;;4.05;;
10031;SDS011;5056;44.272;19.892;2022-09-09T09:04:49;10.85;;;6.90;;
10031;SDS011;5056;44.272;19.892;2022-09-09T09:07:31;5.40;;;4.63;;
10031;SDS011;5056;44.272;19.892;2022-09-09T09:10:10;7.78;;;4.45;;
10031;SDS011;5056;44.272;19.892;2022-09-09T09:12:43;5.30;;;3.83;;
10031;SDS011;5056;44.272;19.892;2022-09-09T09:15:14;6.88;;;3.70;;
10031;SDS011;5056;44.272;19.892;2022-09-09T09:17:44;5.25;;;4.00;;
10031;SDS011;5056;44.272;19.892;2022-09-09T09:20:14;4.40;;;4.00;;
10031;SDS011;5056;44.272;19.892;2022-09-09T09:22:47;5.50;;;3.83;;
10031;SDS011;5056;44.272;19.892;2022-09-09T09:25:18;7.03;;;3.95;;
10031;SDS011;5056;44.272;19.892;2022-09-09T09:27:48;3.83;;;3.53;;
10031;SDS011;5056;44.272;19.892;2022-09-09T09:30:21;5.65;;;3.47;;
10031;SDS011;5056;44.272;19.892;2022-09-09T09:32:51;4.30;;;2.97;;
10031;SDS011;5056;44.272;19.892;2022-09-09T09:35:22;4.75;;;3.20;;
10031;SDS011;5056;44.272;19.892;2022-09-09T09:37:49;5.95;;;3.72;;
10031;SDS011;5056;44.272;19.892;2022-09-09T09:40:19;4.35;;;3.95;;
10031;SDS011;5056;44.272;19.892;2022-09-09T09:42:48;4.45;;;3.42;;
10031;SDS011;5056;44.272;19.892;2022-09-09T09:45:40;4.13;;;3.80;;
10031;SDS011;5056;44.272;19.892;2022-09-09T09:48:10;6.63;;;4.50;;
10031;SDS011;5056;44.272;19.892;2022-09-09T09:50:48;5.30;;;4.03;;
10031;SDS011;5056;44.272;19.892;2022-09-09T09:53:23;5.00;;;4.13;;
10031;SDS011;5056;44.272;19.892;2022-09-09T09:55:53;5.30;;;3.78;;
10031;SDS011;5056;44.272;19.892;2022-09-09T09:58:23;7.22;;;4.40;;
10031;SDS011;5056;44.272;19.892;2022-09-09T10:00:52;9.10;;;5.05;;
10031;SDS011;5056;44.272;19.892;2022-09-09T10:03:27;6.68;;;4.18;;
10031;SDS011;5056;44.272;19.892;2022-09-09T10:05:56;18.25;;;9.60;;
10031;SDS011;5056;44.272;19.892;2022-09-09T10:08:24;5.97;;;4.93;;
10031;SDS011;5056;44.272;19.892;2022-09-09T10:10:54;8.38;;;4.65;;
10031;SDS011;5056;44.272;19.892;2022-09-09T10:13:37;6.68;;;4.10;;
10031;SDS011;5056;44.272;19.892;2022-09-09T10:16:17;5.55;;;3.80;;
10031;SDS011;5056;44.272;19.892;2022-09-09T10:18:58;6.10;;;4.70;;
10031;SDS011;5056;44.272;19.892;2022-09-09T10:24:31;4.57;;;4.13;;
10031;SDS011;5056;44.272;19.892;2022-09-09T10:30:09;4.75;;;4.38;;
10031;SDS011;5056;44.272;19.892;2022-09-09T10:32:45;4.72;;;4.43;;
10031;SDS011;5056;44.272;19.892;2022-09-09T10:35:26;6.93;;;5.03;;
10031;SDS011;5056;44.272;19.892;2022-09-09T10:38:09;6.95;;;4.90;;
10031;SDS011;5056;44.272;19.892;2022-09-09T10:40:42;4.97;;;4.47;;
10031;SDS011;5056;44.272;19.892;2022-09-09T10:43:15;5.47;;;4.97;;
10031;SDS011;5056;44.272;19.892;2022-09-09T10:45:49;5.22;;;4.72;;
10031;SDS011;5056;44.272;19.892;2022-09-09T10:48:24;7.93;;;4.70;;
10031;SDS011;5056;44.272;19.892;2022-09-09T10:51:00;4.65;;;3.97;;
10031;SDS011;5056;44.272;19.892;2022-09-09T10:53:52;5.25;;;4.45;;
10031;SDS011;5056;44.272;19.892;2022-09-09T10:56:24;10.82;;;5.70;;
10031;SDS011;5056;44.272;19.892;2022-09-09T10:58:56;21.85;;;9.50;;
10031;SDS011;5056;44.272;19.892;2022-09-09T11:01:27;9.82;;;5.10;;
10031;SDS011;5056;44.272;19.892;2022-09-09T11:04:00;10.27;;;6.05;;
10031;SDS011;5056;44.272;19.892;2022-09-09T11:06:32;6.45;;;5.15;;
10031;SDS011;5056;44.272;19.892;2022-09-09T11:09:18;5.22;;;4.72;;
10031;SDS011;5056;44.272;19.892;2022-09-09T11:11:56;6.40;;;5.90;;
10031;SDS011;5056;44.272;19.892;2022-09-09T11:14:27;4.90;;;4.57;;
10031;SDS011;5056;44.272;19.892;2022-09-09T11:17:06;5.30;;;4.93;;
10031;SDS011;5056;44.272;19.892;2022-09-09T11:19:38;5.25;;;4.75;;
10031;SDS011;5056;44.272;19.892;2022-09-09T11:22:14;4.50;;;4.07;;
10031;SDS011;5056;44.272;19.892;2022-09-09T11:24:45;4.35;;;3.90;;
10031;SDS011;5056;44.272;19.892;2022-09-09T11:27:15;4.50;;;4.10;;
10031;SDS011;5056;44.272;19.892;2022-09-09T11:30:02;14.27;;;11.18;;
10031;SDS011;5056;44.272;19.892;2022-09-09T11:32:56;8.07;;;7.22;;
10031;SDS011;5056;44.272;19.892;2022-09-09T11:35:31;12.45;;;7.53;;
10031;SDS011;5056;44.272;19.892;2022-09-09T11:38:11;81.07;;;29.10;;
10031;SDS011;5056;44.272;19.892;2022-09-09T11:40:45;7.45;;;5.85;;
10031;SDS011;5056;44.272;19.892;2022-09-09T11:43:13;6.38;;;4.47;;
10031;SDS011;5056;44.272;19.892;2022-09-09T11:45:42;9.10;;;5.60;;
10031;SDS011;5056;44.272;19.892;2022-09-09T11:48:25;5.32;;;4.82;;
10031;SDS011;5056;44.272;19.892;2022-09-09T11:51:00;7.35;;;4.47;;
10031;SDS011;5056;44.272;19.892;2022-09-09T11:53:30;13.00;;;11.50;;
10031;SDS011;5056;44.272;19.892;2022-09-09T11:56:06;9.18;;;8.27;;
10031;SDS011;5056;44.272;19.892;2022-09-09T11:58:42;6.43;;;5.00;;
10031;SDS011;5056;44.272;19.892;2022-09-09T12:01:25;5.30;;;4.50;;
10031;SDS011;5056;44.272;19.892;2022-09-09T12:06:56;16.88;;;13.57;;
10031;SDS011;5056;44.272;19.892;2022-09-09T12:09:32;10.27;;;9.30;;
10031;SDS011;5056;44.272;19.892;2022-09-09T12:12:17;9.82;;;8.23;;
10031;SDS011;5056;44.272;19.892;2022-09-09T12:14:57;7.00;;;6.22;;
10031;SDS011;5056;44.272;19.892;2022-09-09T12:17:26;11.05;;;9.15;;
10031;SDS011;5056;44.272;19.892;2022-09-09T12:20:03;4.47;;;3.80;;
10031;SDS011;5056;44.272;19.892;2022-09-09T12:22:37;5.40;;;4.50;;
10031;SDS011;5056;44.272;19.892;2022-09-09T12:25:09;4.90;;;4.32;;
10031;SDS011;5056;44.272;19.892;2022-09-09T12:27:51;6.85;;;3.92;;
10031;SDS011;5056;44.272;19.892;2022-09-09T12:30:28;5.10;;;4.30;;
10031;SDS011;5056;44.272;19.892;2022-09-09T12:32:59;5.13;;;3.70;;
10031;SDS011;5056;44.272;19.892;2022-09-09T12:35:28;5.38;;;3.60;;
10031;SDS011;5056;44.272;19.892;2022-09-09T12:37:58;5.80;;;4.40;;
10031;SDS011;5056;44.272;19.892;2022-09-09T12:40:27;6.07;;;5.40;;
10031;SDS011;5056;44.272;19.892;2022-09-09T12:42:56;5.30;;;4.90;;
10031;SDS011;5056;44.272;19.892;2022-09-09T12:45:24;5.32;;;4.20;;
10031;SDS011;5056;44.272;19.892;2022-09-09T12:47:53;4.45;;;4.05;;
10031;SDS011;5056;44.272;19.892;2022-09-09T12:50:26;6.05;;;4.85;;
10031;SDS011;5056;44.272;19.892;2022-09-09T12:53:02;5.18;;;4.07;;
10031;SDS011;5056;44.272;19.892;2022-09-09T12:58:53;5.82;;;4.20;;
10031;SDS011;5056;44.272;19.892;2022-09-09T13:01:24;4.55;;;3.88;;
10031;SDS011;5056;44.272;19.892;2022-09-09T13:03:54;4.95;;;3.80;;
10031;SDS011;5056;44.272;19.892;2022-09-09T13:06:29;4.50;;;4.10;;
10031;SDS011;5056;44.272;19.892;2022-09-09T13:09:01;7.38;;;6.00;;
10031;SDS011;5056;44.272;19.892;2022-09-09T13:11:30;4.80;;;4.38;;
10031;SDS011;5056;44.272;19.892;2022-09-09T13:14:03;4.43;;;4.05;;
10031;SDS011;5056;44.272;19.892;2022-09-09T13:16:32;5.60;;;5.18;;
10031;SDS011;5056;44.272;19.892;2022-09-09T13:19:01;5.20;;;4.72;;
10031;SDS011;5056;44.272;19.892;2022-09-09T13:21:33;4.50;;;4.10;;
10031;SDS011;5056;44.272;19.892;2022-09-09T13:24:07;4.63;;;4.18;;
10031;SDS011;5056;44.272;19.892;2022-09-09T13:26:54;8.40;;;4.43;;
10031;SDS011;5056;44.272;19.892;2022-09-09T13:29:24;6.28;;;5.78;;
10031;SDS011;5056;44.272;19.892;2022-09-09T13:32:03;5.32;;;4.93;;
10031;SDS011;5056;44.272;19.892;2022-09-09T13:34:33;6.57;;;3.75;;
10031;SDS011;5056;44.272;19.892;2022-09-09T13:37:04;5.82;;;4.07;;
10031;SDS011;5056;44.272;19.892;2022-09-09T13:39:33;4.82;;;3.53;;
10031;SDS011;5056;44.272;19.892;2022-09-09T13:42:03;5.47;;;3.67;;
10031;SDS011;5056;44.272;19.892;2022-09-09T13:47:20;6.72;;;6.10;;
10031;SDS011;5056;44.272;19.892;2022-09-09T13:49:48;4.47;;;4.07;;
10031;SDS011;5056;44.272;19.892;2022-09-09T13:52:17;4.22;;;3.83;;
10031;SDS011;5056;44.272;19.892;2022-09-09T13:54:47;4.07;;;3.70;;
10031;SDS011;5056;44.272;19.892;2022-09-09T13:57:28;4.00;;;3.42;;
10031;SDS011;5056;44.272;19.892;2022-09-09T13:59:58;8.00;;;6.93;;
10031;SDS011;5056;44.272;19.892;2022-09-09T14:02:26;12.20;;;10.98;;
10031;SDS011;5056;44.272;19.892;2022-09-09T14:04:53;41.30;;;36.88;;
10031;SDS011;5056;44.272;19.892;2022-09-09T14:07:21;29.08;;;23.05;;
10031;SDS011;5056;44.272;19.892;2022-09-09T14:09:55;13.75;;;10.63;;
10031;SDS011;5056;44.272;19.892;2022-09-09T14:12:22;5.15;;;3.88;;
10031;SDS011;5056;44.272;19.892;2022-09-09T14:14:56;4.30;;;4.00;;
10031;SDS011;5056;44.272;19.892;2022-09-09T14:17:25;4.85;;;3.80;;
10031;SDS011;5056;44.272;19.892;2022-09-09T14:19:56;3.97;;;3.50;;
10031;SDS011;5056;44.272;19.892;2022-09-09T14:22:24;4.63;;;3.72;;
10031;SDS011;5056;44.272;19.892;2022-09-09T14:24:56;4.03;;;3.70;;
10031;SDS011;5056;44.272;19.892;2022-09-09T14:27:28;4.72;;;3.85;;
10031;SDS011;5056;44.272;19.892;2022-09-09T14:29:55;4.28;;;3.88;;
10031;SDS011;5056;44.272;19.892;2022-09-09T14:32:26;3.95;;;3.65;;
10031;SDS011;5056;44.272;19.892;2022-09-09T14:34:54;7.97;;;7.28;;
10031;SDS011;5056;44.272;19.892;2022-09-09T14:37:24;4.88;;;4.40;;
10031;SDS011;5056;44.272;19.892;2022-09-09T14:39:51;4.05;;;3.75;;
10031;SDS011;5056;44.272;19.892;2022-09-09T14:42:20;5.05;;;3.70;;
10031;SDS011;5056;44.272;19.892;2022-09-09T14:44:47;3.45;;;3.15;;
10031;SDS011;5056;44.272;19.892;2022-09-09T14:47:16;4.80;;;3.65;;
10031;SDS011;5056;44.272;19.892;2022-09-09T14:52:47;4.00;;;3.47;;
10031;SDS011;5056;44.272;19.892;2022-09-09T14:55:15;9.75;;;8.85;;
10031;SDS011;5056;44.272;19.892;2022-09-09T14:57:42;6.20;;;5.60;;
10031;SDS011;5056;44.272;19.892;2022-09-09T15:00:10;4.40;;;4.10;;
10031;SDS011;5056;44.272;19.892;2022-09-09T15:02:47;5.32;;;3.95;;
10031;SDS011;5056;44.272;19.892;2022-09-09T15:05:14;6.57;;;4.25;;
10031;SDS011;5056;44.272;19.892;2022-09-09T15:07:42;6.45;;;4.00;;
10031;SDS011;5056;44.272;19.892;2022-09-09T15:10:09;6.82;;;5.38;;
10031;SDS011;5056;44.272;19.892;2022-09-09T15:12:37;5.90;;;5.40;;
10031;SDS011;5056;44.272;19.892;2022-09-09T15:15:04;7.10;;;6.38;;
10031;SDS011;5056;44.272;19.892;2022-09-09T15:17:33;19.80;;;15.85;;
10031;SDS011;5056;44.272;19.892;2022-09-09T15:20:03;6.78;;;5.55;;
10031;SDS011;5056;44.272;19.892;2022-09-09T15:22:32;8.88;;;8.07;;
10031;SDS011;5056;44.272;19.892;2022-09-09T15:25:04;20.95;;;17.88;;
10031;SDS011;5056;44.272;19.892;2022-09-09T15:27:32;12.88;;;9.48;;
10031;SDS011;5056;44.272;19.892;2022-09-09T15:30:07;8.70;;;7.80;;
10031;SDS011;5056;44.272;19.892;2022-09-09T15:32:36;9.10;;;7.55;;
10031;SDS011;5056;44.272;19.892;2022-09-09T15:35:06;9.50;;;7.80;;
10031;SDS011;5056;44.272;19.892;2022-09-09T15:37:34;7.72;;;6.97;;
10031;SDS011;5056;44.272;19.892;2022-09-09T15:40:02;7.95;;;7.15;;